Time;durP1;ratioP1;P1;durP2;ratioP2;P2;SDS_P1;SDS_P2;PMS_P1;PMS_P2;Temp;Humidity;BMP_temperature;BMP_pressure;BME280_temperature;BME280_humidity;BME280_pressure;Samples;Min_cycle;Max_cycle;Signal;HPM_P1;HPM_P2
2023/11/22 00:01:14;;;;;;;5.53;2.40;;;;;;;19.63;100.00;101085.28;10412926;28;20053;-83
2023/11/22 00:06:37;;;;;;;11.02;3.33;;;;;;;19.62;100.00;101087.09;10435727;28;20049;-83
2023/11/22 00:11:59;;;;;;;9.07;2.47;;;;;;;19.66;100.00;101090.59;10448757;28;20040;-83
2023/11/22 00:17:24;;;;;;;9.82;2.25;;;;;;;19.67;100.00;101071.84;10462425;28;20106;-82
2023/11/22 00:22:47;;;;;;;4.20;1.80;;;;;;;19.71;100.00;101062.81;10449619;28;20044;-83
2023/11/22 00:28:09;;;;;;;7.50;2.65;;;;;;;19.68;100.00;101046.81;10448497;28;20049;-83
2023/11/22 00:33:34;;;;;;;5.20;2.10;;;;;;;19.58;100.00;101045.19;10413977;28;20040;-83
2023/11/22 00:38:57;;;;;;;3.80;1.85;;;;;;;19.52;100.00;101039.94;10427290;28;20143;-84
2023/11/22 00:44:21;;;;;;;7.13;2.25;;;;;;;19.45;100.00;101032.88;10454609;28;20090;-84
2023/11/22 00:49:46;;;;;;;2.85;1.95;;;;;;;19.42;100.00;101041.88;10443630;28;20345;-83
2023/11/22 00:55:09;;;;;;;6.50;2.20;;;;;;;19.37;100.00;101040.16;10441322;28;20127;-84
2023/11/22 01:00:32;;;;;;;7.82;2.75;;;;;;;19.35;100.00;101041.97;10441133;28;20103;-83
2023/11/22 01:05:56;;;;;;;6.97;3.13;;;;;;;19.31;100.00;101033.09;10442235;28;20037;-83
2023/11/22 01:11:19;;;;;;;4.82;2.40;;;;;;;19.36;100.00;101036.56;10454737;28;20041;-84
2023/11/22 01:16:43;;;;;;;5.78;2.45;;;;;;;19.24;100.00;101034.09;10443532;28;20041;-84
2023/11/22 01:22:07;;;;;;;4.40;2.30;;;;;;;19.18;100.00;101030.63;10441887;28;20052;-84
2023/11/22 01:27:29;;;;;;;7.38;2.38;;;;;;;19.08;100.00;101032.59;10454204;28;20094;-83
2023/11/22 01:32:55;;;;;;;6.80;4.38;;;;;;;18.97;100.00;101022.03;10455572;28;20069;-82
2023/11/22 01:38:20;;;;;;;10.73;5.57;;;;;;;18.95;100.00;101026.53;10467967;28;20052;-83
2023/11/22 01:43:46;;;;;;;11.43;4.65;;;;;;;18.93;100.00;101016.75;10433556;28;20552;-84
2023/11/22 01:49:11;;;;;;;7.60;3.55;;;;;;;18.66;100.00;101010.00;10447582;28;20071;-83
2023/11/22 01:54:36;;;;;;;4.40;2.50;;;;;;;18.55;100.00;100998.53;10440646;28;20413;-83
2023/11/22 02:00:04;;;;;;;5.97;2.75;;;;;;;18.59;100.00;100993.13;10453879;28;20033;-83
2023/11/22 02:05:35;;;;;;;5.88;2.50;;;;;;;18.77;100.00;100977.75;10467408;28;20132;-83
2023/11/22 02:11:03;;;;;;;8.10;2.42;;;;;;;18.91;100.00;100970.38;10453596;28;20132;-83
2023/11/22 02:16:26;;;;;;;4.40;2.00;;;;;;;19.08;100.00;100977.28;10453806;28;20393;-83
2023/11/22 02:21:48;;;;;;;4.10;2.67;;;;;;;19.31;100.00;100962.59;10439294;28;20056;-84
2023/11/22 02:27:12;;;;;;;4.43;2.25;;;;;;;19.21;100.00;100958.34;10453190;28;20439;-83
2023/11/22 02:32:34;;;;;;;6.80;2.88;;;;;;;19.19;100.00;100957.47;10404766;28;20124;-83
2023/11/22 02:37:57;;;;;;;6.47;2.28;;;;;;;19.45;100.00;100940.03;10452466;28;20047;-83
2023/11/22 02:43:23;;;;;;;4.22;2.10;;;;;;;19.64;100.00;100956.69;10450946;28;20053;-83
2023/11/22 02:48:45;;;;;;;5.25;2.08;;;;;;;19.86;100.00;100950.03;10425086;28;20045;-83
2023/11/22 02:54:08;;;;;;;6.53;2.47;;;;;;;19.96;100.00;100949.81;10446370;28;20465;-83
2023/11/22 02:59:32;;;;;;;6.15;2.17;;;;;;;20.16;100.00;100958.34;10449905;28;20059;-83
2023/11/22 03:04:54;;;;;;;3.88;1.73;;;;;;;20.28;100.00;100947.41;10436785;28;20064;-83
2023/11/22 03:10:17;;;;;;;3.83;2.08;;;;;;;20.28;100.00;100952.75;10450898;28;20067;-83
2023/11/22 03:15:42;;;;;;;4.30;1.77;;;;;;;20.36;100.00;100939.19;10443566;28;20073;-83
2023/11/22 03:21:05;;;;;;;5.00;2.38;;;;;;;20.41;100.00;100930.16;10437281;28;20049;-83
2023/11/22 03:26:27;;;;;;;4.15;1.42;;;;;;;20.41;100.00;100951.63;10436382;28;20048;-83
2023/11/22 03:31:51;;;;;;;7.30;1.80;;;;;;;20.34;100.00;100947.28;10450843;28;20055;-83
2023/11/22 03:37:14;;;;;;;3.95;1.63;;;;;;;20.17;100.00;100944.91;10436413;28;20103;-83
2023/11/22 03:42:38;;;;;;;4.88;1.73;;;;;;;19.90;100.00;100938.31;10449460;28;20057;-82
2023/11/22 03:48:02;;;;;;;4.07;1.75;;;;;;;19.60;100.00;100938.91;10463317;28;20057;-82
2023/11/22 03:53:25;;;;;;;4.07;1.80;;;;;;;19.45;100.00;100939.16;10449839;28;20049;-86
2023/11/22 03:58:48;;;;;;;5.88;2.22;;;;;;;19.29;100.00;100941.25;10449245;28;20041;-83
2023/11/22 04:04:12;;;;;;;4.25;1.98;;;;;;;19.17;100.00;100938.75;10449229;28;20549;-83
2023/11/22 04:09:35;;;;;;;6.32;1.65;;;;;;;19.23;100.00;100956.53;10435317;28;20098;-81
2023/11/22 04:14:57;;;;;;;3.95;1.42;;;;;;;19.46;100.00;100957.91;10433964;28;20111;-81
2023/11/22 04:20:21;;;;;;;5.80;1.77;;;;;;;19.34;100.00;100966.13;10433632;28;20053;-81
2023/11/22 04:25:44;;;;;;;8.45;3.33;;;;;;;19.35;100.00;100981.28;10442956;28;20052;-81
2023/11/22 04:31:08;;;;;;;4.13;1.50;;;;;;;19.53;100.00;100981.91;10447617;28;20052;-82
2023/11/22 04:36:33;;;;;;;3.13;1.33;;;;;;;19.74;100.00;100974.38;10457305;28;20571;-82
2023/11/22 04:41:55;;;;;;;4.93;1.45;;;;;;;19.61;100.00;100979.97;10435492;28;20049;-80
2023/11/22 04:47:18;;;;;;;2.33;1.30;;;;;;;19.46;100.00;100986.47;10454478;28;20068;-81
2023/11/22 04:52:42;;;;;;;3.83;1.20;;;;;;;19.36;100.00;100983.03;10445382;28;20052;-81
2023/11/22 04:58:04;;;;;;;3.17;1.20;;;;;;;19.26;100.00;100985.91;10442383;28;20567;-82
2023/11/22 05:03:27;;;;;;;2.50;1.55;;;;;;;19.14;100.00;100997.69;10455396;28;20045;-83
2023/11/22 05:08:51;;;;;;;3.78;1.38;;;;;;;19.22;100.00;101013.63;10441161;28;20044;-83
2023/11/22 05:14:14;;;;;;;7.90;1.17;;;;;;;19.28;100.00;101006.41;10454033;28;20068;-82
2023/11/22 05:19:38;;;;;;;2.92;1.17;;;;;;;19.32;100.00;101012.56;10467788;28;20053;-83
2023/11/22 05:25:07;;;;;;;3.60;1.40;;;;;;;19.36;100.00;101011.63;10444557;28;20053;-83
2023/11/22 05:30:31;;;;;;;3.97;1.52;;;;;;;19.34;100.00;101013.44;10440237;28;20049;-83
2023/11/22 05:35:53;;;;;;;2.90;1.20;;;;;;;19.45;100.00;101011.47;10454762;28;20098;-82
2023/11/22 05:41:17;;;;;;;2.35;1.30;;;;;;;19.56;100.00;101008.66;10453701;28;20045;-82
2023/11/22 05:46:40;;;;;;;2.97;0.90;;;;;;;19.73;100.00;101009.22;10453531;28;20055;-82
2023/11/22 05:52:04;;;;;;;3.00;1.15;;;;;;;20.13;100.00;101012.94;10454937;28;20699;-83
2023/11/22 05:57:29;;;;;;;2.38;1.10;;;;;;;20.97;100.00;101014.72;10453109;28;20048;-84
2023/11/22 06:02:55;;;;;;;3.95;1.08;;;;;;;21.55;100.00;101007.97;10439057;28;20515;-83
2023/11/22 06:08:18;;;;;;;8.57;2.55;;;;;;;21.68;100.00;101013.91;10453775;28;20427;-83
2023/11/22 06:13:42;;;;;;;6.60;1.80;;;;;;;21.86;100.00;101016.97;10452647;28;20049;-82
2023/11/22 06:19:07;;;;;;;3.53;1.10;;;;;;;21.39;100.00;101010.19;10453188;28;20053;-83
2023/11/22 06:24:29;;;;;;;4.80;0.90;;;;;;;22.07;100.00;101011.97;10452485;28;20132;-83
2023/11/22 06:29:53;;;;;;;4.68;1.02;;;;;;;22.78;100.00;101001.84;10443108;28;20041;-82
2023/11/22 06:35:17;;;;;;;3.72;1.20;;;;;;;22.71;100.00;101012.84;10438605;28;20040;-82
2023/11/22 06:40:39;;;;;;;2.80;0.82;;;;;;;24.37;100.00;101017.13;10451254;28;20049;-82
2023/11/22 06:46:05;;;;;;;2.35;1.00;;;;;;;25.23;100.00;101010.16;10427898;28;20079;-82
2023/11/22 06:51:28;;;;;;;5.63;0.98;;;;;;;27.13;100.00;101004.34;10437005;28;20067;-82
2023/11/22 06:56:51;;;;;;;3.70;0.93;;;;;;;27.71;90.82;101007.72;10450635;28;20049;-83
2023/11/22 07:02:19;;;;;;;3.95;0.90;;;;;;;27.73;87.53;101000.41;10457308;28;20045;-83
2023/11/22 07:07:42;;;;;;;2.50;0.63;;;;;;;28.51;80.48;100997.13;10449887;28;20057;-83
2023/11/22 07:13:04;;;;;;;4.43;1.25;;;;;;;28.27;78.81;100992.19;10449556;28;20111;-82
2023/11/22 07:18:29;;;;;;;3.10;1.20;;;;;;;28.83;74.68;100989.94;10421074;28;20107;-82
2023/11/22 07:23:52;;;;;;;2.70;0.88;;;;;;;28.64;79.30;100993.72;10424817;28;20068;-84
2023/11/22 07:29:16;;;;;;;1.67;0.93;;;;;;;29.97;71.35;100995.97;10431762;28;20053;-83
2023/11/22 07:34:41;;;;;;;4.55;1.05;;;;;;;30.69;62.88;101003.25;10447607;28;20057;-82
2023/11/22 07:40:05;;;;;;;1.52;0.90;;;;;;;30.47;56.15;101003.69;10436600;28;20444;-84
2023/11/22 07:45:32;;;;;;;3.83;0.88;;;;;;;29.30;60.51;100989.03;10449028;28;20052;-83
2023/11/22 07:50:58;;;;;;;3.45;0.90;;;;;;;29.15;60.86;100982.66;10421761;28;20582;-83
2023/11/22 07:56:21;;;;;;;5.72;1.67;;;;;;;29.28;58.69;100982.81;10448078;28;20049;-83
2023/11/22 08:01:50;;;;;;;3.40;1.50;;;;;;;29.12;61.76;100985.56;10432083;28;20524;-81
2023/11/22 08:07:16;;;;;;;5.28;1.15;;;;;;;30.04;53.91;100976.44;10438077;28;20053;-81
2023/11/22 08:12:39;;;;;;;3.83;1.42;;;;;;;30.16;47.03;100974.78;10439437;28;20370;-82
2023/11/22 08:18:01;;;;;;;3.95;2.08;;;;;;;29.47;48.78;100972.63;10414757;28;20444;-83
2023/11/22 08:23:27;;;;;;;2.53;0.88;;;;;;;29.63;50.22;100972.59;10424256;28;20063;-84
2023/11/22 08:28:49;;;;;;;8.13;2.40;;;;;;;30.22;47.51;100954.44;10423031;28;20053;-83
2023/11/22 08:34:11;;;;;;;3.65;1.33;;;;;;;29.94;47.00;100958.00;10408798;28;20124;-84
2023/11/22 08:39:35;;;;;;;4.50;1.25;;;;;;;29.79;48.33;100956.22;10408434;28;20045;-81
2023/11/22 08:44:57;;;;;;;38.70;2.80;;;;;;;30.23;45.39;100937.13;10407936;28;20052;-82
2023/11/22 08:50:20;;;;;;;3.08;0.95;;;;;;;29.71;47.11;100937.63;10448689;28;20045;-84
2023/11/22 08:55:44;;;;;;;6.97;5.32;;;;;;;30.43;45.75;100923.13;10449461;28;20107;-84
2023/11/22 09:01:07;;;;;;;3.80;1.05;;;;;;;29.54;47.13;100908.69;10448548;28;20049;-84
2023/11/22 09:06:29;;;;;;;1.58;0.82;;;;;;;28.70;52.51;100887.41;10448996;28;20110;-85
2023/11/22 09:11:53;;;;;;;3.75;0.80;;;;;;;30.30;48.68;100871.25;10456779;28;20481;-87
2023/11/22 09:17:16;;;;;;;9.88;1.27;;;;;;;29.75;47.50;100887.44;10457021;28;20421;-88
2023/11/22 09:22:45;;;;;;;7.97;4.10;;;;;;;30.18;46.86;100934.72;10451276;28;20090;-86
2023/11/22 09:28:09;;;;;;;7.55;3.35;;;;;;;27.03;69.65;100954.25;10468827;28;20107;-85
2023/11/22 09:33:33;;;;;;;9.13;4.82;;;;;;;25.49;94.67;100981.16;10456044;28;20150;-86
2023/11/22 09:38:56;;;;;;;9.75;4.85;;;;;;;23.50;100.00;100976.16;10454641;28;20436;-81
2023/11/22 09:44:20;;;;;;;13.88;8.23;;;;;;;21.82;100.00;100963.34;10439693;28;20072;-79
2023/11/22 09:49:44;;;;;;;4.70;1.80;;;;;;;20.39;100.00;100966.84;10454522;28;20045;-81
2023/11/22 09:55:07;;;;;;;6.80;1.70;;;;;;;19.94;100.00;100967.75;10454741;28;20073;-83
2023/11/22 10:00:33;;;;;;;4.28;2.20;;;;;;;20.02;100.00;100980.06;10435101;28;20072;-87
2023/11/22 10:05:58;;;;;;;4.50;2.33;;;;;;;20.21;100.00;100968.09;10452496;28;20057;-86
2023/11/22 10:11:21;;;;;;;2.58;1.92;;;;;;;20.63;100.00;100962.72;10433113;28;20061;-84
2023/11/22 10:16:59;;;;;;;12.80;9.98;;;;;;;21.84;100.00;100972.28;10445911;28;20435;-84
2023/11/22 10:22:21;;;;;;;5.80;3.28;;;;;;;23.22;100.00;100959.16;10448684;28;20106;-87
2023/11/22 10:27:45;;;;;;;7.53;2.60;;;;;;;23.26;100.00;100942.81;10436355;28;20049;-90
2023/11/22 10:33:13;;;;;;;13.25;10.05;;;;;;;24.03;100.00;100925.72;10413172;28;20493;-88
2023/11/22 10:38:36;;;;;;;29.75;25.88;;;;;;;26.15;100.00;100902.44;10452070;28;20378;-81
2023/11/22 10:43:59;;;;;;;4.75;1.80;;;;;;;26.48;100.00;100891.88;10481776;28;20152;-87
2023/11/22 10:49:23;;;;;;;7.65;1.70;;;;;;;25.23;100.00;100866.03;10447249;28;20040;-85
2023/11/22 10:54:51;;;;;;;13.18;2.08;;;;;;;24.81;100.00;100874.97;10451568;28;20076;-87
2023/11/22 11:00:17;;;;;;;5.68;2.47;;;;;;;25.23;100.00;100861.50;10450347;28;20037;-86
2023/11/22 11:05:50;;;;;;;20.48;14.40;;;;;;;25.44;100.00;100858.81;10465499;28;20056;-87
2023/11/22 11:11:15;;;;;;;6.70;2.65;;;;;;;25.63;100.00;100873.31;10452808;28;20037;-89
2023/11/22 11:16:41;;;;;;;4.88;1.98;;;;;;;26.27;100.00;100856.81;10444706;28;20041;-90
2023/11/22 11:22:09;;;;;;;3.90;1.07;;;;;;;27.35;100.00;100871.28;10452021;28;20075;-89
2023/11/22 11:27:35;;;;;;;2.22;1.23;;;;;;;27.20;100.00;100875.66;10435439;28;20049;-87
2023/11/22 11:32:58;;;;;;;6.63;2.92;;;;;;;26.46;100.00;100879.34;10439306;28;20325;-87
2023/11/22 11:38:32;;;;;;;6.25;1.90;;;;;;;26.14;100.00;100860.06;10448376;28;20052;-90
2023/11/22 11:43:58;;;;;;;6.75;1.52;;;;;;;25.41;100.00;100871.50;10460995;28;20081;-84
2023/11/22 11:49:24;;;;;;;9.93;3.55;;;;;;;25.28;100.00;100872.09;10447150;28;20586;-89
2023/11/22 11:54:48;;;;;;;3.92;1.33;;;;;;;24.84;100.00;100866.75;10413595;28;20057;-85
2023/11/22 12:00:13;;;;;;;7.90;1.35;;;;;;;24.55;100.00;100870.63;10446755;28;20052;-83
2023/11/22 12:05:36;;;;;;;3.03;0.80;;;;;;;23.79;100.00;100881.66;10449799;28;20056;-91
2023/11/22 12:11:00;;;;;;;7.55;1.20;;;;;;;23.86;100.00;100884.13;10450591;28;20072;-90
2023/11/22 12:16:22;;;;;;;6.68;1.23;;;;;;;24.11;100.00;100883.16;10450693;28;20052;-89
2023/11/22 12:21:45;;;;;;;5.07;1.20;;;;;;;24.47;100.00;100883.56;10409561;28;20053;-91
2023/11/22 12:27:10;;;;;;;4.93;1.10;;;;;;;24.58;100.00;100889.41;10443456;28;20052;-89
2023/11/22 12:32:33;;;;;;;4.70;1.00;;;;;;;24.61;100.00;100901.94;10435460;28;20073;-91
2023/11/22 12:37:56;;;;;;;3.60;0.93;;;;;;;24.66;100.00;100901.72;10451539;28;20076;-89
2023/11/22 12:43:20;;;;;;;5.07;1.15;;;;;;;24.39;100.00;100899.19;10425145;28;20060;-88
2023/11/22 12:48:43;;;;;;;3.55;0.98;;;;;;;24.37;100.00;100890.25;10451870;28;20139;-87
2023/11/22 12:54:06;;;;;;;3.88;2.45;;;;;;;24.11;100.00;100891.25;10439856;28;20045;-86
2023/11/22 12:59:31;;;;;;;4.30;1.17;;;;;;;23.86;100.00;100898.50;10452628;28;20056;-85
2023/11/22 13:04:53;;;;;;;4.72;1.08;;;;;;;23.78;100.00;100893.38;10422684;28;20144;-89
2023/11/22 13:10:17;;;;;;;4.97;1.15;;;;;;;23.69;100.00;100896.44;10438770;28;20111;-88
2023/11/22 13:15:42;;;;;;;4.93;1.20;;;;;;;23.54;100.00;100902.38;10469001;28;20098;-88
2023/11/22 13:21:05;;;;;;;3.15;1.20;;;;;;;23.40;100.00;100899.25;10445680;28;20077;-89
2023/11/22 13:26:27;;;;;;;4.75;1.02;;;;;;;23.39;100.00;100908.25;10455453;28;20509;-83
2023/11/22 13:31:51;;;;;;;3.70;1.10;;;;;;;23.26;100.00;100906.91;10425068;28;20049;-89
2023/11/22 13:37:15;;;;;;;2.88;1.30;;;;;;;23.25;100.00;100915.91;10453011;28;20452;-84
2023/11/22 13:42:38;;;;;;;6.47;1.45;;;;;;;22.98;100.00;100917.72;10451067;28;20140;-85
2023/11/22 13:48:04;;;;;;;4.88;1.33;;;;;;;22.78;100.00;100918.38;10453479;28;20563;-82
2023/11/22 13:53:32;;;;;;;4.55;1.20;;;;;;;22.55;100.00;100929.84;10441162;28;20091;-84
2023/11/22 13:58:54;;;;;;;3.15;1.25;;;;;;;22.43;100.00;100915.91;10453325;28;20459;-83
2023/11/22 14:04:18;;;;;;;2.33;1.13;;;;;;;22.29;100.00;100907.34;10455153;28;20081;-83
2023/11/22 14:09:40;;;;;;;7.88;1.67;;;;;;;22.14;100.00;100906.88;10447290;28;20051;-84
2023/11/22 14:15:05;;;;;;;5.50;1.55;;;;;;;21.92;100.00;100904.84;10442042;28;20140;-83
2023/11/22 14:20:29;;;;;;;3.35;1.70;;;;;;;21.68;100.00;100927.91;10438711;28;20044;-83
2023/11/22 14:25:51;;;;;;;9.98;1.65;;;;;;;21.48;100.00;100921.25;10449300;28;20688;-82
2023/11/22 14:31:14;;;;;;;4.75;2.08;;;;;;;21.36;100.00;100924.28;10452187;28;20493;-80
2023/11/22 14:36:38;;;;;;;4.05;1.50;;;;;;;21.23;100.00;100930.88;10451161;28;20053;-83
2023/11/22 14:42:00;;;;;;;4.63;2.40;;;;;;;21.15;100.00;100926.59;10449972;28;20056;-82
2023/11/22 14:47:24;;;;;;;18.58;8.02;;;;;;;21.01;100.00;100930.50;10464196;28;20052;-89
2023/11/22 14:52:49;;;;;;;8.20;2.85;;;;;;;20.90;100.00;100926.31;10452155;28;20131;-85
2023/11/22 14:58:12;;;;;;;6.50;2.08;;;;;;;20.80;100.00;100916.75;10449268;28;20045;-84
2023/11/22 15:03:35;;;;;;;3.45;1.80;;;;;;;20.85;100.00;100918.38;10416633;28;20050;-85
2023/11/22 15:09:00;;;;;;;7.40;2.42;;;;;;;20.71;100.00;100930.38;10447608;28;20489;-84
2023/11/22 15:14:26;;;;;;;4.82;2.50;;;;;;;20.50;100.00;100932.63;10425540;28;20164;-83
2023/11/22 15:25:28;;;;;;;4.68;2.40;;;;;;;20.46;100.00;100941.66;10449777;28;20080;-89
2023/11/22 15:30:59;;;;;;;9.30;5.35;;;;;;;20.28;100.00;100953.59;10451240;28;20396;-89
2023/11/22 15:36:21;;;;;;;10.00;4.70;;;;;;;20.27;100.00;100945.63;10463128;28;20466;-90
2023/11/22 15:41:45;;;;;;;8.35;3.80;;;;;;;20.19;100.00;100955.63;10449362;28;20056;-84
2023/11/22 15:47:08;;;;;;;14.48;7.20;;;;;;;20.00;100.00;100962.28;10436956;28;20389;-85
2023/11/22 15:52:30;;;;;;;14.52;12.15;;;;;;;19.88;100.00;100988.41;10436255;28;20436;-86
2023/11/22 15:57:54;;;;;;;9.85;7.03;;;;;;;19.94;100.00;100987.41;10449616;28;20106;-88
2023/11/22 16:03:18;;;;;;;3.47;2.10;;;;;;;20.03;100.00;100995.25;10429635;28;20086;-87
2023/11/22 16:08:41;;;;;;;7.50;2.00;;;;;;;20.04;100.00;100993.44;10445002;28;20131;-84
2023/11/22 16:14:05;;;;;;;6.35;1.83;;;;;;;19.94;100.00;101013.31;10414715;28;20049;-87
2023/11/22 16:19:27;;;;;;;5.28;1.95;;;;;;;19.79;100.00;101012.69;10448673;28;20059;-85
2023/11/22 16:24:50;;;;;;;4.70;2.10;;;;;;;19.51;100.00;101022.09;10432379;28;20127;-86
2023/11/22 16:30:15;;;;;;;8.75;2.45;;;;;;;19.46;100.00;101035.56;10439881;28;20563;-82
2023/11/22 16:35:46;;;;;;;5.00;2.33;;;;;;;19.59;100.00;101030.91;10418249;28;20053;-82
2023/11/22 16:41:08;;;;;;;4.15;1.95;;;;;;;19.64;100.00;101038.84;10426753;28;20050;-79
2023/11/22 16:46:33;;;;;;;4.40;1.63;;;;;;;19.54;100.00;101037.25;10436256;28;20520;-81
2023/11/22 16:51:55;;;;;;;6.20;2.22;;;;;;;19.46;100.00;101042.72;10409234;28;20127;-82
2023/11/22 16:57:18;;;;;;;3.45;1.73;;;;;;;19.61;100.00;101033.56;10436994;28;20045;-82
2023/11/22 17:02:41;;;;;;;5.88;2.00;;;;;;;19.77;100.00;101041.28;10414926;28;20038;-82
2023/11/22 17:08:04;;;;;;;5.75;1.55;;;;;;;19.78;100.00;101037.69;10436828;28;20274;-82
2023/11/22 17:13:26;;;;;;;2.97;1.52;;;;;;;19.78;100.00;101031.44;10410058;28;20075;-83
2023/11/22 17:18:51;;;;;;;4.63;1.75;;;;;;;19.77;100.00;101046.63;10431856;28;20163;-85
2023/11/22 17:24:13;;;;;;;4.93;1.40;;;;;;;19.81;100.00;101055.53;10443540;28;20040;-83
2023/11/22 17:29:35;;;;;;;4.72;1.50;;;;;;;19.81;100.00;101058.22;10441038;28;20049;-84
2023/11/22 17:34:59;;;;;;;5.47;1.90;;;;;;;19.69;100.00;101079.84;10421432;28;20057;-87
2023/11/22 17:40:23;;;;;;;7.80;1.80;;;;;;;19.57;100.00;101074.66;10402322;28;20046;-82
2023/11/22 17:45:45;;;;;;;4.82;1.80;;;;;;;19.58;100.00;101087.16;10438839;28;20103;-83
2023/11/22 17:51:09;;;;;;;4.93;1.30;;;;;;;19.47;100.00;101100.72;10428058;28;20115;-84
2023/11/22 17:56:31;;;;;;;2.70;1.50;;;;;;;19.59;100.00;101103.22;10422810;28;20133;-83
2023/11/22 18:01:54;;;;;;;3.35;1.95;;;;;;;19.58;100.00;101108.59;10426210;28;20444;-82
2023/11/22 18:07:18;;;;;;;5.07;1.52;;;;;;;19.56;100.00;101105.06;10438128;28;20045;-81
2023/11/22 18:12:41;;;;;;;5.65;1.65;;;;;;;19.58;100.00;101104.13;10423984;28;20065;-84
2023/11/22 18:18:09;;;;;;;7.13;2.55;;;;;;;19.56;100.00;101123.81;10442265;28;20048;-87
2023/11/22 18:23:33;;;;;;;4.40;3.13;;;;;;;19.43;100.00;101137.34;10434634;28;20106;-85
2023/11/22 18:28:57;;;;;;;11.18;6.18;;;;;;;19.41;100.00;101140.97;10425155;28;20096;-82
2023/11/22 18:34:19;;;;;;;11.60;4.05;;;;;;;19.38;100.00;101141.00;10416897;28;20087;-81
2023/11/22 18:39:43;;;;;;;9.88;3.80;;;;;;;19.38;100.00;101154.38;10417731;28;20040;-85
2023/11/22 18:45:08;;;;;;;8.18;5.15;;;;;;;19.54;100.00;101169.38;10441368;28;20041;-84
2023/11/22 18:50:30;;;;;;;6.85;3.70;;;;;;;19.55;100.00;101160.44;10449221;28;20091;-82
2023/11/22 18:55:54;;;;;;;10.68;3.90;;;;;;;19.48;100.00;101177.50;10437471;28;20107;-82
2023/11/22 19:01:17;;;;;;;4.50;3.22;;;;;;;19.47;100.00;101184.63;10440066;28;20490;-83
2023/11/22 19:06:39;;;;;;;7.28;3.17;;;;;;;19.50;100.00;101186.38;10424560;28;20045;-82
2023/11/22 19:12:03;;;;;;;7.38;4.30;;;;;;;19.48;100.00;101182.84;10425059;28;20072;-83
2023/11/22 19:17:26;;;;;;;11.23;5.57;;;;;;;19.39;100.00;101182.94;10442872;28;20059;-84
2023/11/22 19:22:49;;;;;;;11.52;5.97;;;;;;;19.18;100.00;101188.56;10433098;28;20041;-86
2023/11/22 19:28:14;;;;;;;8.93;4.22;;;;;;;19.02;100.00;101187.88;10439348;28;20110;-84
2023/11/22 19:33:37;;;;;;;9.35;4.55;;;;;;;18.93;100.00;101188.88;10429340;28;20045;-83
2023/11/22 19:39:00;;;;;;;9.98;5.18;;;;;;;19.06;100.00;101195.84;10442133;28;20053;-81
2023/11/22 19:44:25;;;;;;;7.35;4.43;;;;;;;19.42;100.00;101204.31;10441379;28;20071;-86
2023/11/22 19:49:48;;;;;;;6.40;4.35;;;;;;;19.68;100.00;101209.34;10437966;28;20052;-82
2023/11/22 19:55:14;;;;;;;8.15;4.20;;;;;;;19.86;100.00;101209.06;10443407;28;20060;-85
2023/11/22 20:00:38;;;;;;;7.03;4.85;;;;;;;19.90;100.00;101205.41;10444547;28;20041;-86
2023/11/22 20:06:02;;;;;;;7.70;5.10;;;;;;;19.74;100.00;101212.81;10420475;28;20067;-86
2023/11/22 20:11:26;;;;;;;9.00;4.90;;;;;;;19.82;100.00;101212.72;10413361;28;20069;-86
2023/11/22 20:16:52;;;;;;;8.38;6.45;;;;;;;19.63;100.00;101198.69;10430898;28;20080;-86
2023/11/22 20:22:16;;;;;;;10.70;6.65;;;;;;;19.25;100.00;101207.22;10441242;28;20100;-86
2023/11/22 20:27:40;;;;;;;12.32;5.38;;;;;;;19.18;100.00;101220.69;10422141;28;20052;-86
2023/11/22 20:33:07;;;;;;;10.02;6.20;;;;;;;19.43;100.00;101212.31;10445753;28;20090;-87
2023/11/22 20:38:31;;;;;;;8.52;5.57;;;;;;;19.31;100.00;101209.81;10448243;28;20052;-86
2023/11/22 20:43:54;;;;;;;11.05;5.88;;;;;;;18.97;100.00;101220.03;10435374;28;20046;-86
2023/11/22 20:49:19;;;;;;;10.57;5.70;;;;;;;18.90;100.00;101214.78;10443984;28;20040;-87
2023/11/22 20:54:42;;;;;;;8.15;5.85;;;;;;;18.75;100.00;101204.25;10490044;28;20045;-86
2023/11/22 21:00:09;;;;;;;14.65;7.80;;;;;;;18.50;100.00;101211.63;10447304;28;20102;-86
2023/11/22 21:05:34;;;;;;;10.90;6.80;;;;;;;18.66;100.00;101215.94;10498033;28;20500;-87
2023/11/22 21:10:57;;;;;;;20.95;13.73;;;;;;;18.73;100.00;101212.28;10497436;28;20113;-86
2023/11/22 21:16:21;;;;;;;8.73;6.32;;;;;;;18.94;100.00;101216.53;10447740;28;20370;-87
2023/11/22 21:21:47;;;;;;;8.60;6.03;;;;;;;18.66;100.00;101216.81;10413967;28;20941;-86
2023/11/22 21:27:10;;;;;;;9.57;6.43;;;;;;;18.88;100.00;101208.56;10439323;28;20135;-84
2023/11/22 21:32:33;;;;;;;10.27;6.43;;;;;;;18.70;100.00;101229.28;10438149;28;20690;-85
2023/11/22 21:37:58;;;;;;;10.13;6.75;;;;;;;18.70;100.00;101220.38;10454446;28;20037;-85
2023/11/22 21:43:21;;;;;;;7.65;6.25;;;;;;;18.44;100.00;101225.94;10454809;28;20699;-85
2023/11/22 21:48:44;;;;;;;11.90;7.75;;;;;;;18.51;100.00;101230.28;10448294;28;20037;-85
2023/11/22 21:54:09;;;;;;;10.35;7.28;;;;;;;18.66;100.00;101229.28;10453353;28;20084;-85
2023/11/22 21:59:34;;;;;;;8.20;7.00;;;;;;;18.81;100.00;101220.22;10453836;28;20049;-89
2023/11/22 22:04:57;;;;;;;9.10;7.47;;;;;;;18.59;100.00;101216.88;10450493;28;20092;-87
2023/11/22 22:10:22;;;;;;;11.20;8.25;;;;;;;18.37;100.00;101212.63;10416918;28;20103;-87
2023/11/22 22:15:45;;;;;;;9.73;7.05;;;;;;;18.31;100.00;101216.25;10454328;28;20053;-87
2023/11/22 22:21:08;;;;;;;11.50;8.23;;;;;;;18.22;100.00;101201.16;10451922;28;20106;-87
2023/11/22 22:26:33;;;;;;;12.43;7.88;;;;;;;18.17;100.00;101207.47;10448708;28;20048;-87
2023/11/22 22:31:56;;;;;;;13.00;8.20;;;;;;;18.14;100.00;101210.13;10453577;28;20055;-88
2023/11/22 22:37:21;;;;;;;13.23;9.15;;;;;;;18.22;100.00;101202.94;10467557;28;20044;-88
2023/11/22 22:42:46;;;;;;;13.48;8.73;;;;;;;18.18;100.00;101195.88;10422412;28;20037;-88
2023/11/22 22:48:09;;;;;;;12.05;8.95;;;;;;;17.76;100.00;101207.75;10442672;28;20057;-87
2023/11/22 22:53:32;;;;;;;16.35;9.80;;;;;;;17.88;100.00;101203.22;10451948;28;20072;-87
2023/11/22 22:58:57;;;;;;;12.25;9.13;;;;;;;17.73;100.00;101197.09;10440771;28;20129;-86
2023/11/22 23:04:22;;;;;;;13.77;9.95;;;;;;;17.64;100.00;101194.50;10446731;28;20598;-86
2023/11/22 23:09:46;;;;;;;14.35;9.18;;;;;;;17.54;100.00;101198.94;10451000;28;20049;-86
2023/11/22 23:15:11;;;;;;;13.75;10.50;;;;;;;17.68;100.00;101198.91;10451537;28;20045;-86
2023/11/22 23:20:35;;;;;;;15.05;10.05;;;;;;;17.84;100.00;101205.94;10450767;28;20393;-86
2023/11/22 23:25:58;;;;;;;13.13;11.25;;;;;;;17.83;100.00;101198.81;10463780;28;20055;-87
2023/11/22 23:31:23;;;;;;;15.05;11.27;;;;;;;17.70;100.00;101198.00;10445765;28;20136;-86
2023/11/22 23:36:46;;;;;;;12.93;9.18;;;;;;;18.00;100.00;101190.66;10464871;28;20072;-87
2023/11/22 23:42:13;;;;;;;15.38;10.07;;;;;;;18.34;100.00;101186.81;10451691;28;20194;-87
2023/11/22 23:47:38;;;;;;;14.77;9.63;;;;;;;18.33;100.00;101177.91;10449162;28;20132;-86
2023/11/22 23:53:01;;;;;;;12.85;9.15;;;;;;;18.11;100.00;101186.13;10455993;28;20060;-86
2023/11/22 23:58:25;;;;;;;15.93;10.05;;;;;;;18.17;100.00;101189.63;10450345;28;20056;-85
